sensor_id;sensor_type;location;lat;lon;timestamp;pressure;altitude;pressure_sealevel;temperature;humidity
70982;BME280;58640;51.320;9.456;2022-08-21T00:01:21;99523.03;;;18.50;78.46
70982;BME280;58640;51.320;9.456;2022-08-21T00:03:47;99519.06;;;18.52;78.28
70982;BME280;58640;51.320;9.456;2022-08-21T00:06:13;99513.22;;;18.49;78.59
70982;BME280;58640;51.320;9.456;2022-08-21T00:08:38;99518.34;;;18.39;78.96
70982;BME280;58640;51.320;9.456;2022-08-21T00:11:05;99519.03;;;18.28;79.36
70982;BME280;58640;51.320;9.456;2022-08-21T00:13:30;99510.03;;;18.27;79.36
70982;BME280;58640;51.320;9.456;2022-08-21T00:15:56;99513.25;;;18.18;79.58
70982;BME280;58640;51.320;9.456;2022-08-21T00:18:21;99513.59;;;18.28;79.08
70982;BME280;58640;51.320;9.456;2022-08-21T00:20:47;99507.69;;;18.31;78.91
70982;BME280;58640;51.320;9.456;2022-08-21T00:23:14;99508.88;;;18.17;79.12
70982;BME280;58640;51.320;9.456;2022-08-21T00:25:41;99501.66;;;18.04;80.12
70982;BME280;58640;51.320;9.456;2022-08-21T00:28:07;99502.63;;;18.10;79.71
70982;BME280;58640;51.320;9.456;2022-08-21T00:30:33;99506.16;;;18.17;79.18
70982;BME280;58640;51.320;9.456;2022-08-21T00:32:59;99501.53;;;18.17;79.34
70982;BME280;58640;51.320;9.456;2022-08-21T00:35:29;99502.97;;;18.20;79.11
70982;BME280;58640;51.320;9.456;2022-08-21T00:37:55;99499.09;;;18.09;79.78
70982;BME280;58640;51.320;9.456;2022-08-21T00:40:34;99493.88;;;18.08;79.77
70982;BME280;58640;51.320;9.456;2022-08-21T00:43:03;99502.47;;;18.05;79.47
70982;BME280;58640;51.320;9.456;2022-08-21T00:45:28;99494.75;;;18.02;79.73
70982;BME280;58640;51.320;9.456;2022-08-21T00:47:55;99498.72;;;18.06;79.63
70982;BME280;58640;51.320;9.456;2022-08-21T00:50:22;99492.25;;;18.00;79.56
70982;BME280;58640;51.320;9.456;2022-08-21T00:52:49;99489.47;;;17.82;80.13
70982;BME280;58640;51.320;9.456;2022-08-21T00:55:15;99486.97;;;17.81;80.58
70982;BME280;58640;51.320;9.456;2022-08-21T00:57:55;99488.69;;;17.75;80.32
70982;BME280;58640;51.320;9.456;2022-08-21T01:00:30;99490.56;;;17.75;80.04
70982;BME280;58640;51.320;9.456;2022-08-21T01:02:57;99501.25;;;17.70;80.18
70982;BME280;58640;51.320;9.456;2022-08-21T01:05:23;99494.56;;;17.72;79.72
70982;BME280;58640;51.320;9.456;2022-08-21T01:07:48;99491.41;;;17.75;79.54
70982;BME280;58640;51.320;9.456;2022-08-21T01:10:15;99498.72;;;17.75;78.93
70982;BME280;58640;51.320;9.456;2022-08-21T01:12:41;99502.09;;;17.70;78.75
70982;BME280;58640;51.320;9.456;2022-08-21T01:15:07;99499.72;;;17.49;79.63
70982;BME280;58640;51.320;9.456;2022-08-21T01:17:34;99502.88;;;17.46;79.45
70982;BME280;58640;51.320;9.456;2022-08-21T01:20:04;99497.66;;;17.38;79.34
70982;BME280;58640;51.320;9.456;2022-08-21T01:22:30;99492.22;;;17.38;78.98
70982;BME280;58640;51.320;9.456;2022-08-21T01:24:55;99496.19;;;17.42;78.66
70982;BME280;58640;51.320;9.456;2022-08-21T01:27:21;99488.25;;;17.47;77.96
70982;BME280;58640;51.320;9.456;2022-08-21T01:29:52;99499.69;;;17.56;77.69
70982;BME280;58640;51.320;9.456;2022-08-21T01:32:20;99497.22;;;17.41;78.11
70982;BME280;58640;51.320;9.456;2022-08-21T01:34:47;99501.00;;;17.40;78.16
70982;BME280;58640;51.320;9.456;2022-08-21T01:37:13;99503.56;;;17.28;78.68
70982;BME280;58640;51.320;9.456;2022-08-21T01:39:41;99498.34;;;17.27;78.72
70982;BME280;58640;51.320;9.456;2022-08-21T01:42:06;99507.81;;;17.18;79.13
70982;BME280;58640;51.320;9.456;2022-08-21T01:44:32;99509.28;;;17.14;79.59
70982;BME280;58640;51.320;9.456;2022-08-21T01:47:01;99500.47;;;17.18;79.14
70982;BME280;58640;51.320;9.456;2022-08-21T01:49:27;99499.44;;;17.19;79.28
70982;BME280;58640;51.320;9.456;2022-08-21T01:51:52;99499.69;;;17.11;79.10
70982;BME280;58640;51.320;9.456;2022-08-21T01:54:18;99499.28;;;17.08;79.24
70982;BME280;58640;51.320;9.456;2022-08-21T01:56:47;99501.38;;;17.06;78.77
70982;BME280;58640;51.320;9.456;2022-08-21T01:59:13;99499.09;;;17.03;78.93
70982;BME280;58640;51.320;9.456;2022-08-21T02:01:39;99501.03;;;16.96;79.38
70982;BME280;58640;51.320;9.456;2022-08-21T02:04:05;99496.22;;;16.91;79.34
70982;BME280;58640;51.320;9.456;2022-08-21T02:06:31;99502.50;;;16.92;79.51
70982;BME280;58640;51.320;9.456;2022-08-21T02:08:57;99495.84;;;16.81;79.61
70982;BME280;58640;51.320;9.456;2022-08-21T02:11:22;99493.34;;;16.80;79.73
70982;BME280;58640;51.320;9.456;2022-08-21T02:13:48;99486.63;;;16.82;79.54
70982;BME280;58640;51.320;9.456;2022-08-21T02:16:14;99491.88;;;16.77;79.91
70982;BME280;58640;51.320;9.456;2022-08-21T02:18:39;99485.78;;;16.82;79.78
70982;BME280;58640;51.320;9.456;2022-08-21T02:21:05;99484.13;;;16.81;79.64
70982;BME280;58640;51.320;9.456;2022-08-21T02:23:31;99479.75;;;16.80;79.59
70982;BME280;58640;51.320;9.456;2022-08-21T02:25:58;99483.75;;;16.71;79.73
70982;BME280;58640;51.320;9.456;2022-08-21T02:28:25;99473.97;;;16.63;80.00
70982;BME280;58640;51.320;9.456;2022-08-21T02:30:51;99470.41;;;16.63;79.89
70982;BME280;58640;51.320;9.456;2022-08-21T02:33:16;99470.00;;;16.66;79.17
70982;BME280;58640;51.320;9.456;2022-08-21T02:35:43;99472.53;;;16.61;79.20
70982;BME280;58640;51.320;9.456;2022-08-21T02:38:13;99476.28;;;16.53;79.43
70982;BME280;58640;51.320;9.456;2022-08-21T02:40:41;99469.81;;;16.54;79.02
70982;BME280;58640;51.320;9.456;2022-08-21T02:43:07;99481.13;;;16.45;79.15
70982;BME280;58640;51.320;9.456;2022-08-21T02:45:34;99474.41;;;16.28;79.79
70982;BME280;58640;51.320;9.456;2022-08-21T02:48:03;99476.47;;;16.39;79.37
70982;BME280;58640;51.320;9.456;2022-08-21T02:50:32;99478.16;;;16.40;79.22
70982;BME280;58640;51.320;9.456;2022-08-21T02:52:58;99476.91;;;16.36;79.32
70982;BME280;58640;51.320;9.456;2022-08-21T02:55:26;99467.09;;;16.35;78.96
70982;BME280;58640;51.320;9.456;2022-08-21T02:57:53;99466.25;;;16.41;78.79
70982;BME280;58640;51.320;9.456;2022-08-21T03:00:19;99475.44;;;16.66;77.69
70982;BME280;58640;51.320;9.456;2022-08-21T03:02:46;99475.03;;;16.62;77.91
70982;BME280;58640;51.320;9.456;2022-08-21T03:05:12;99470.34;;;16.82;76.55
70982;BME280;58640;51.320;9.456;2022-08-21T03:07:38;99466.88;;;16.62;78.00
70982;BME280;58640;51.320;9.456;2022-08-21T03:10:05;99465.25;;;16.35;78.94
70982;BME280;58640;51.320;9.456;2022-08-21T03:12:30;99466.69;;;16.25;79.31
70982;BME280;58640;51.320;9.456;2022-08-21T03:14:56;99468.53;;;16.44;78.60
70982;BME280;58640;51.320;9.456;2022-08-21T03:17:23;99467.91;;;16.61;77.56
70982;BME280;58640;51.320;9.456;2022-08-21T03:19:48;99473.13;;;16.63;77.26
70982;BME280;58640;51.320;9.456;2022-08-21T03:22:14;99467.53;;;16.38;78.61
70982;BME280;58640;51.320;9.456;2022-08-21T03:24:39;99469.63;;;16.17;79.20
70982;BME280;58640;51.320;9.456;2022-08-21T03:27:04;99475.47;;;16.13;79.54
70982;BME280;58640;51.320;9.456;2022-08-21T03:29:30;99473.41;;;16.02;79.79
70982;BME280;58640;51.320;9.456;2022-08-21T03:31:55;99472.56;;;16.15;79.35
70982;BME280;58640;51.320;9.456;2022-08-21T03:34:21;99473.19;;;16.10;79.70
70982;BME280;58640;51.320;9.456;2022-08-21T03:36:47;99476.09;;;16.22;79.04
70982;BME280;58640;51.320;9.456;2022-08-21T03:39:14;99481.13;;;16.25;78.37
70982;BME280;58640;51.320;9.456;2022-08-21T03:41:39;99485.91;;;16.10;79.24
70982;BME280;58640;51.320;9.456;2022-08-21T03:44:04;99482.38;;;16.03;79.64
70982;BME280;58640;51.320;9.456;2022-08-21T03:46:30;99478.00;;;15.95;79.61
70982;BME280;58640;51.320;9.456;2022-08-21T03:48:55;99476.97;;;15.90;79.83
70982;BME280;58640;51.320;9.456;2022-08-21T03:51:21;99480.72;;;15.89;79.69
70982;BME280;58640;51.320;9.456;2022-08-21T03:53:47;99486.16;;;15.95;79.52
70982;BME280;58640;51.320;9.456;2022-08-21T03:56:12;99485.72;;;15.92;79.44
70982;BME280;58640;51.320;9.456;2022-08-21T03:58:38;99488.66;;;15.97;78.81
70982;BME280;58640;51.320;9.456;2022-08-21T04:01:04;99489.06;;;15.87;79.31
70982;BME280;58640;51.320;9.456;2022-08-21T04:03:31;99493.03;;;15.85;79.35
70982;BME280;58640;51.320;9.456;2022-08-21T04:05:57;99493.41;;;15.69;79.98
70982;BME280;58640;51.320;9.456;2022-08-21T04:08:23;99503.66;;;15.73;79.97
70982;BME280;58640;51.320;9.456;2022-08-21T04:10:51;99508.88;;;15.68;80.21
70982;BME280;58640;51.320;9.456;2022-08-21T04:13:17;99509.25;;;15.65;80.08
70982;BME280;58640;51.320;9.456;2022-08-21T04:15:43;99501.75;;;15.67;80.21
70982;BME280;58640;51.320;9.456;2022-08-21T04:18:08;99507.19;;;15.61;80.14
70982;BME280;58640;51.320;9.456;2022-08-21T04:20:34;99506.97;;;15.56;81.05
70982;BME280;58640;51.320;9.456;2022-08-21T04:23:01;99511.38;;;15.63;80.88
70982;BME280;58640;51.320;9.456;2022-08-21T04:25:26;99512.41;;;15.62;80.33
70982;BME280;58640;51.320;9.456;2022-08-21T04:27:52;99513.88;;;15.58;80.13
70982;BME280;58640;51.320;9.456;2022-08-21T04:30:18;99511.16;;;15.58;80.25
70982;BME280;58640;51.320;9.456;2022-08-21T04:32:45;99517.19;;;15.54;79.95
70982;BME280;58640;51.320;9.456;2022-08-21T04:35:11;99518.66;;;15.56;80.29
70982;BME280;58640;51.320;9.456;2022-08-21T04:37:38;99516.97;;;15.55;80.01
70982;BME280;58640;51.320;9.456;2022-08-21T04:40:05;99520.94;;;15.53;79.73
70982;BME280;58640;51.320;9.456;2022-08-21T04:42:31;99522.81;;;15.46;79.92
70982;BME280;58640;51.320;9.456;2022-08-21T04:44:57;99523.00;;;15.57;79.38
70982;BME280;58640;51.320;9.456;2022-08-21T04:47:23;99528.44;;;15.51;79.66
70982;BME280;58640;51.320;9.456;2022-08-21T04:49:49;99523.00;;;15.57;79.46
70982;BME280;58640;51.320;9.456;2022-08-21T04:52:17;99529.28;;;15.58;79.15
70982;BME280;58640;51.320;9.456;2022-08-21T04:54:44;99532.63;;;15.53;79.56
70982;BME280;58640;51.320;9.456;2022-08-21T04:57:10;99535.75;;;15.57;79.47
70982;BME280;58640;51.320;9.456;2022-08-21T04:59:44;99533.25;;;15.55;80.20
70982;BME280;58640;51.320;9.456;2022-08-21T05:02:11;99532.22;;;15.69;79.86
70982;BME280;58640;51.320;9.456;2022-08-21T05:04:49;99533.47;;;15.73;79.87
70982;BME280;58640;51.320;9.456;2022-08-21T05:07:19;99533.91;;;15.77;80.14
70982;BME280;58640;51.320;9.456;2022-08-21T05:09:46;99529.13;;;15.85;79.89
70982;BME280;58640;51.320;9.456;2022-08-21T05:12:11;99538.31;;;15.97;79.91
70982;BME280;58640;51.320;9.456;2022-08-21T05:14:37;99536.66;;;15.96;80.39
70982;BME280;58640;51.320;9.456;2022-08-21T05:17:03;99544.78;;;16.03;80.24
70982;BME280;58640;51.320;9.456;2022-08-21T05:19:29;99541.44;;;16.07;80.49
70982;BME280;58640;51.320;9.456;2022-08-21T05:21:54;99542.28;;;16.08;80.77
70982;BME280;58640;51.320;9.456;2022-08-21T05:24:20;99543.09;;;16.08;80.66
70982;BME280;58640;51.320;9.456;2022-08-21T05:26:45;99538.31;;;16.10;80.94
70982;BME280;58640;51.320;9.456;2022-08-21T05:29:11;99542.69;;;16.11;80.80
70982;BME280;58640;51.320;9.456;2022-08-21T05:31:37;99546.03;;;16.40;79.66
70982;BME280;58640;51.320;9.456;2022-08-21T05:34:03;99540.84;;;16.45;79.21
70982;BME280;58640;51.320;9.456;2022-08-21T05:36:29;99544.56;;;16.57;78.86
70982;BME280;58640;51.320;9.456;2022-08-21T05:38:54;99550.00;;;16.50;77.97
70982;BME280;58640;51.320;9.456;2022-08-21T05:41:19;99541.63;;;16.39;78.32
70982;BME280;58640;51.320;9.456;2022-08-21T05:43:45;99541.47;;;16.40;78.92
70982;BME280;58640;51.320;9.456;2022-08-21T05:46:10;99541.84;;;16.76;77.00
70982;BME280;58640;51.320;9.456;2022-08-21T05:48:36;99550.75;;;16.90;76.67
70982;BME280;58640;51.320;9.456;2022-08-21T05:51:10;99562.91;;;16.94;76.28
70982;BME280;58640;51.320;9.456;2022-08-21T05:53:37;99558.09;;;16.96;76.55
70982;BME280;58640;51.320;9.456;2022-08-21T05:56:03;99557.69;;;16.92;76.68
70982;BME280;58640;51.320;9.456;2022-08-21T05:58:29;99560.34;;;17.12;76.47
70982;BME280;58640;51.320;9.456;2022-08-21T06:00:55;99565.34;;;17.15;76.14
70982;BME280;58640;51.320;9.456;2022-08-21T06:03:26;99554.16;;;17.36;75.49
70982;BME280;58640;51.320;9.456;2022-08-21T06:05:53;99556.25;;;17.47;74.51
70982;BME280;58640;51.320;9.456;2022-08-21T06:08:19;99558.75;;;17.42;75.24
70982;BME280;58640;51.320;9.456;2022-08-21T06:10:46;99561.22;;;17.57;74.76
70982;BME280;58640;51.320;9.456;2022-08-21T06:13:11;99557.81;;;17.68;74.73
70982;BME280;58640;51.320;9.456;2022-08-21T06:15:37;99546.63;;;18.07;73.39
70982;BME280;58640;51.320;9.456;2022-08-21T06:18:03;99552.56;;;17.97;73.73
70982;BME280;58640;51.320;9.456;2022-08-21T06:20:29;99560.16;;;17.89;74.19
70982;BME280;58640;51.320;9.456;2022-08-21T06:22:54;99559.97;;;17.90;74.48
70982;BME280;58640;51.320;9.456;2022-08-21T06:25:20;99557.78;;;18.30;72.38
70982;BME280;58640;51.320;9.456;2022-08-21T06:27:45;99554.03;;;18.24;73.02
70982;BME280;58640;51.320;9.456;2022-08-21T06:30:12;99554.03;;;18.24;72.99
70982;BME280;58640;51.320;9.456;2022-08-21T06:32:37;99559.56;;;18.42;72.53
70982;BME280;58640;51.320;9.456;2022-08-21T06:35:04;99554.94;;;18.18;73.98
70982;BME280;58640;51.320;9.456;2022-08-21T06:37:29;99549.38;;;18.31;74.39
70982;BME280;58640;51.320;9.456;2022-08-21T06:39:55;99553.00;;;19.11;71.15
70982;BME280;58640;51.320;9.456;2022-08-21T06:42:20;99555.50;;;19.12;71.74
70982;BME280;58640;51.320;9.456;2022-08-21T06:44:46;99560.41;;;19.58;69.47
70982;BME280;58640;51.320;9.456;2022-08-21T06:47:13;99552.66;;;19.55;70.43
70982;BME280;58640;51.320;9.456;2022-08-21T06:49:38;99555.84;;;19.52;69.57
70982;BME280;58640;51.320;9.456;2022-08-21T06:52:08;99554.09;;;19.87;67.68
70982;BME280;58640;51.320;9.456;2022-08-21T06:54:34;99553.84;;;19.77;68.34
70982;BME280;58640;51.320;9.456;2022-08-21T06:56:59;99551.97;;;19.89;68.20
70982;BME280;58640;51.320;9.456;2022-08-21T06:59:25;99555.41;;;20.14;68.47
70982;BME280;58640;51.320;9.456;2022-08-21T07:01:50;99552.19;;;20.17;67.09
70982;BME280;58640;51.320;9.456;2022-08-21T07:04:15;99545.22;;;20.33;67.32
70982;BME280;58640;51.320;9.456;2022-08-21T07:06:41;99548.31;;;21.17;63.14
70982;BME280;58640;51.320;9.456;2022-08-21T07:09:06;99548.44;;;21.50;62.31
70982;BME280;58640;51.320;9.456;2022-08-21T07:11:32;99548.34;;;21.45;63.00
70982;BME280;58640;51.320;9.456;2022-08-21T07:13:57;99548.91;;;21.58;61.11
70982;BME280;58640;51.320;9.456;2022-08-21T07:16:23;99538.97;;;21.69;62.48
70982;BME280;58640;51.320;9.456;2022-08-21T07:18:49;99536.56;;;21.84;60.90
70982;BME280;58640;51.320;9.456;2022-08-21T07:21:14;99531.59;;;21.81;60.38
70982;BME280;58640;51.320;9.456;2022-08-21T07:23:43;99541.06;;;21.90;60.34
70982;BME280;58640;51.320;9.456;2022-08-21T07:26:10;99528.06;;;22.30;59.36
70982;BME280;58640;51.320;9.456;2022-08-21T07:28:35;99524.34;;;24.30;53.82
70982;BME280;58640;51.320;9.456;2022-08-21T07:31:02;99526.72;;;24.17;53.83
70982;BME280;58640;51.320;9.456;2022-08-21T07:33:30;99531.69;;;22.85;57.51
70982;BME280;58640;51.320;9.456;2022-08-21T07:35:56;99526.81;;;22.71;57.44
70982;BME280;58640;51.320;9.456;2022-08-21T07:38:22;99524.09;;;22.54;58.16
70982;BME280;58640;51.320;9.456;2022-08-21T07:40:49;99527.22;;;23.01;57.68
70982;BME280;58640;51.320;9.456;2022-08-21T07:43:16;99526.88;;;23.57;55.21
70982;BME280;58640;51.320;9.456;2022-08-21T07:45:42;99517.94;;;23.02;56.82
70982;BME280;58640;51.320;9.456;2022-08-21T07:48:08;99521.97;;;22.94;57.78
70982;BME280;58640;51.320;9.456;2022-08-21T07:50:33;99516.31;;;23.06;57.31
70982;BME280;58640;51.320;9.456;2022-08-21T07:52:59;99510.94;;;22.56;58.09
70982;BME280;58640;51.320;9.456;2022-08-21T07:55:25;99513.19;;;22.10;59.44
70982;BME280;58640;51.320;9.456;2022-08-21T07:57:50;99511.03;;;22.61;57.75
70982;BME280;58640;51.320;9.456;2022-08-21T08:00:19;99511.09;;;22.17;58.65
70982;BME280;58640;51.320;9.456;2022-08-21T08:02:48;99508.97;;;22.52;58.48
70982;BME280;58640;51.320;9.456;2022-08-21T08:05:19;99507.25;;;22.84;57.08
70982;BME280;58640;51.320;9.456;2022-08-21T08:07:45;99509.69;;;23.24;56.01
70982;BME280;58640;51.320;9.456;2022-08-21T08:10:11;99505.28;;;23.39;56.24
70982;BME280;58640;51.320;9.456;2022-08-21T08:12:38;99513.59;;;23.71;54.52
70982;BME280;58640;51.320;9.456;2022-08-21T08:15:06;99509.28;;;24.06;54.07
70982;BME280;58640;51.320;9.456;2022-08-21T08:17:32;99505.16;;;23.56;55.46
70982;BME280;58640;51.320;9.456;2022-08-21T08:19:58;99505.28;;;23.66;54.19
70982;BME280;58640;51.320;9.456;2022-08-21T08:22:26;99500.66;;;23.71;53.54
70982;BME280;58640;51.320;9.456;2022-08-21T08:24:52;99500.50;;;22.91;54.50
70982;BME280;58640;51.320;9.456;2022-08-21T08:27:18;99497.59;;;23.41;52.45
70982;BME280;58640;51.320;9.456;2022-08-21T08:29:45;99484.44;;;23.70;53.28
70982;BME280;58640;51.320;9.456;2022-08-21T08:32:11;99494.22;;;23.87;53.79
70982;BME280;58640;51.320;9.456;2022-08-21T08:34:38;99484.38;;;24.18;52.25
70982;BME280;58640;51.320;9.456;2022-08-21T08:37:04;99485.09;;;24.72;48.33
70982;BME280;58640;51.320;9.456;2022-08-21T08:39:30;99490.72;;;24.97;47.09
70982;BME280;58640;51.320;9.456;2022-08-21T08:42:08;99491.41;;;25.24;47.81
70982;BME280;58640;51.320;9.456;2022-08-21T08:44:35;99484.38;;;25.53;47.15
70982;BME280;58640;51.320;9.456;2022-08-21T08:47:01;99493.66;;;25.32;48.45
70982;BME280;58640;51.320;9.456;2022-08-21T08:49:33;99484.72;;;25.81;46.29
70982;BME280;58640;51.320;9.456;2022-08-21T08:52:05;99486.56;;;25.46;48.74
70982;BME280;58640;51.320;9.456;2022-08-21T08:54:43;99481.56;;;24.86;47.98
70982;BME280;58640;51.320;9.456;2022-08-21T08:57:15;99480.47;;;24.82;47.45
70982;BME280;58640;51.320;9.456;2022-08-21T08:59:44;99477.22;;;24.90;46.73
70982;BME280;58640;51.320;9.456;2022-08-21T09:02:13;99486.25;;;25.42;44.36
70982;BME280;58640;51.320;9.456;2022-08-21T09:04:40;99479.41;;;25.55;44.43
70982;BME280;58640;51.320;9.456;2022-08-21T09:15:35;99475.84;;;25.49;43.04
70982;BME280;58640;51.320;9.456;2022-08-21T09:23:57;99461.03;;;25.04;43.87
70982;BME280;58640;51.320;9.456;2022-08-21T09:29:24;99467.97;;;25.11;45.81
70982;BME280;58640;51.320;9.456;2022-08-21T09:31:50;99470.00;;;25.41;44.44
70982;BME280;58640;51.320;9.456;2022-08-21T09:34:28;99472.56;;;25.62;43.15
70982;BME280;58640;51.320;9.456;2022-08-21T09:36:54;99472.59;;;25.82;43.43
70982;BME280;58640;51.320;9.456;2022-08-21T09:39:29;99462.72;;;26.12;39.95
70982;BME280;58640;51.320;9.456;2022-08-21T09:44:28;99465.69;;;25.85;41.31
70982;BME280;58640;51.320;9.456;2022-08-21T09:46:54;99472.59;;;25.82;40.34
70982;BME280;58640;51.320;9.456;2022-08-21T09:49:30;99468.22;;;25.15;41.84
70982;BME280;58640;51.320;9.456;2022-08-21T09:51:57;99466.19;;;24.85;41.20
70982;BME280;58640;51.320;9.456;2022-08-21T09:54:32;99467.00;;;24.86;42.68
70982;BME280;58640;51.320;9.456;2022-08-21T09:59:53;99464.03;;;25.69;41.88
70982;BME280;58640;51.320;9.456;2022-08-21T10:02:34;99448.09;;;26.21;38.47
70982;BME280;58640;51.320;9.456;2022-08-21T10:05:18;99448.66;;;26.03;39.11
70982;BME280;58640;51.320;9.456;2022-08-21T10:07:43;99452.72;;;25.65;39.89
70982;BME280;58640;51.320;9.456;2022-08-21T10:10:28;99449.69;;;25.67;41.23
70982;BME280;58640;51.320;9.456;2022-08-21T10:13:08;99445.63;;;26.10;39.04
70982;BME280;58640;51.320;9.456;2022-08-21T10:15:54;99437.59;;;26.33;38.89
70982;BME280;58640;51.320;9.456;2022-08-21T10:18:48;99433.47;;;25.96;40.04
70982;BME280;58640;51.320;9.456;2022-08-21T10:21:27;99427.97;;;26.16;39.24
70982;BME280;58640;51.320;9.456;2022-08-21T10:24:20;99433.75;;;26.14;37.79
70982;BME280;58640;51.320;9.456;2022-08-21T10:27:09;99427.91;;;26.61;36.42
70982;BME280;58640;51.320;9.456;2022-08-21T10:29:51;99422.66;;;26.59;35.80
70982;BME280;58640;51.320;9.456;2022-08-21T10:35:33;99422.91;;;26.73;37.00
70982;BME280;58640;51.320;9.456;2022-08-21T10:41:00;99418.97;;;26.94;34.87
70982;BME280;58640;51.320;9.456;2022-08-21T10:44:07;99416.59;;;26.67;35.93
70982;BME280;58640;51.320;9.456;2022-08-21T10:46:54;99413.72;;;27.02;34.52
70982;BME280;58640;51.320;9.456;2022-08-21T10:54:45;99409.94;;;26.78;35.90
70982;BME280;58640;51.320;9.456;2022-08-21T11:00:16;99408.31;;;26.77;35.92
70982;BME280;58640;51.320;9.456;2022-08-21T11:05:16;99407.47;;;26.77;32.62
70982;BME280;58640;51.320;9.456;2022-08-21T11:07:47;99401.13;;;26.71;34.40
70982;BME280;58640;51.320;9.456;2022-08-21T11:13:32;99405.84;;;26.56;34.23
70982;BME280;58640;51.320;9.456;2022-08-21T11:18:47;99397.34;;;26.37;34.16
70982;BME280;58640;51.320;9.456;2022-08-21T11:21:37;99400.03;;;26.52;33.12
70982;BME280;58640;51.320;9.456;2022-08-21T11:27:36;99386.59;;;26.16;35.54
70982;BME280;58640;51.320;9.456;2022-08-21T11:30:05;99396.84;;;26.10;36.96
70982;BME280;58640;51.320;9.456;2022-08-21T11:51:56;99384.13;;;25.79;36.29
70982;BME280;58640;51.320;9.456;2022-08-21T11:54:33;99385.22;;;25.63;36.82
70982;BME280;58640;51.320;9.456;2022-08-21T11:57:23;99376.97;;;25.53;39.03
70982;BME280;58640;51.320;9.456;2022-08-21T12:00:03;99366.22;;;25.46;36.67
70982;BME280;58640;51.320;9.456;2022-08-21T12:02:39;99373.91;;;25.44;36.66
70982;BME280;58640;51.320;9.456;2022-08-21T12:05:10;99381.56;;;25.27;37.72
70982;BME280;58640;51.320;9.456;2022-08-21T12:07:42;99369.13;;;25.20;39.79
70982;BME280;58640;51.320;9.456;2022-08-21T12:10:18;99371.91;;;25.25;38.12
70982;BME280;58640;51.320;9.456;2022-08-21T12:12:47;99374.66;;;25.25;36.80
70982;BME280;58640;51.320;9.456;2022-08-21T12:17:57;99371.63;;;25.11;36.75
70982;BME280;58640;51.320;9.456;2022-08-21T12:20:36;99365.84;;;25.18;37.09
70982;BME280;58640;51.320;9.456;2022-08-21T12:23:16;99361.72;;;25.25;36.13
70982;BME280;58640;51.320;9.456;2022-08-21T12:26:10;99360.59;;;25.06;37.77
70982;BME280;58640;51.320;9.456;2022-08-21T12:28:37;99361.13;;;25.03;36.15
70982;BME280;58640;51.320;9.456;2022-08-21T12:31:02;99357.88;;;25.16;36.30
70982;BME280;58640;51.320;9.456;2022-08-21T12:33:34;99357.31;;;25.14;37.19
70982;BME280;58640;51.320;9.456;2022-08-21T12:36:06;99358.94;;;25.15;35.92
70982;BME280;58640;51.320;9.456;2022-08-21T12:38:57;99358.97;;;25.25;35.92
70982;BME280;58640;51.320;9.456;2022-08-21T12:41:34;99353.53;;;25.45;34.72
70982;BME280;58640;51.320;9.456;2022-08-21T12:44:17;99351.88;;;25.39;36.89
70982;BME280;58640;51.320;9.456;2022-08-21T12:46:50;99347.47;;;25.38;35.33
70982;BME280;58640;51.320;9.456;2022-08-21T12:49:23;99350.16;;;25.28;34.44
70982;BME280;58640;51.320;9.456;2022-08-21T12:51:55;99356.78;;;25.22;36.01
70982;BME280;58640;51.320;9.456;2022-08-21T12:54:32;99338.94;;;25.45;34.59
70982;BME280;58640;51.320;9.456;2022-08-21T12:57:06;99332.03;;;25.37;35.01
70982;BME280;58640;51.320;9.456;2022-08-21T12:59:37;99345.28;;;25.55;34.55
70982;BME280;58640;51.320;9.456;2022-08-21T13:02:05;99343.34;;;25.41;34.11
70982;BME280;58640;51.320;9.456;2022-08-21T13:04:39;99339.47;;;25.37;34.95
70982;BME280;58640;51.320;9.456;2022-08-21T13:07:14;99332.03;;;25.47;33.25
70982;BME280;58640;51.320;9.456;2022-08-21T13:10:03;99338.66;;;25.41;33.45
70982;BME280;58640;51.320;9.456;2022-08-21T13:12:30;99346.28;;;25.24;36.32
70982;BME280;58640;51.320;9.456;2022-08-21T13:14:59;99346.56;;;25.23;34.27
70982;BME280;58640;51.320;9.456;2022-08-21T13:17:26;99340.78;;;25.14;35.01
70982;BME280;58640;51.320;9.456;2022-08-21T13:20:03;99341.34;;;25.16;35.11
70982;BME280;58640;51.320;9.456;2022-08-21T13:22:29;99341.88;;;25.08;34.42
70982;BME280;58640;51.320;9.456;2022-08-21T13:24:55;99340.75;;;24.99;34.23
70982;BME280;58640;51.320;9.456;2022-08-21T13:27:25;99345.34;;;24.79;34.47
70982;BME280;58640;51.320;9.456;2022-08-21T13:30:10;99332.41;;;24.74;34.21
70982;BME280;58640;51.320;9.456;2022-08-21T13:32:41;99333.72;;;24.62;34.88
70982;BME280;58640;51.320;9.456;2022-08-21T13:35:12;99324.34;;;24.63;34.50
70982;BME280;58640;51.320;9.456;2022-08-21T13:37:41;99328.72;;;24.53;35.68
70982;BME280;58640;51.320;9.456;2022-08-21T13:40:10;99325.78;;;24.70;34.35
70982;BME280;58640;51.320;9.456;2022-08-21T13:42:40;99320.56;;;24.69;36.17
70982;BME280;58640;51.320;9.456;2022-08-21T13:45:21;99310.28;;;24.49;34.28
70982;BME280;58640;51.320;9.456;2022-08-21T13:47:47;99322.41;;;24.58;34.48
70982;BME280;58640;51.320;9.456;2022-08-21T13:50:14;99309.75;;;24.62;34.70
70982;BME280;58640;51.320;9.456;2022-08-21T13:53:00;99314.59;;;24.97;32.48
70982;BME280;58640;51.320;9.456;2022-08-21T13:55:39;99315.09;;;24.84;34.13
70982;BME280;58640;51.320;9.456;2022-08-21T13:58:05;99317.56;;;24.80;34.11
70982;BME280;58640;51.320;9.456;2022-08-21T14:00:33;99314.56;;;24.87;34.06
70982;BME280;58640;51.320;9.456;2022-08-21T14:03:10;99314.06;;;25.00;33.68
70982;BME280;58640;51.320;9.456;2022-08-21T14:05:44;99315.44;;;25.07;32.89
70982;BME280;58640;51.320;9.456;2022-08-21T14:08:19;99306.09;;;25.18;32.61
70982;BME280;58640;51.320;9.456;2022-08-21T14:10:49;99306.09;;;25.18;32.64
70982;BME280;58640;51.320;9.456;2022-08-21T14:16:28;99315.69;;;25.01;33.21
70982;BME280;58640;51.320;9.456;2022-08-21T14:19:07;99312.66;;;24.92;33.35
70982;BME280;58640;51.320;9.456;2022-08-21T14:21:36;99302.22;;;24.99;33.39
70982;BME280;58640;51.320;9.456;2022-08-21T14:24:05;99302.19;;;24.84;34.32